createdAt,value
2019-04-25T00:02:40.808Z,10.60
2019-04-25T00:05:11.404Z,10.50
2019-04-25T00:07:42.484Z,10.50
2019-04-25T00:10:11.707Z,10.50
2019-04-25T00:12:43.578Z,10.50
2019-04-25T00:15:13.330Z,10.50
2019-04-25T00:17:43.559Z,10.50
2019-04-25T00:20:14.166Z,10.50
2019-04-25T00:22:58.576Z,10.50
2019-04-25T00:26:01.893Z,10.50
2019-04-25T00:28:31.644Z,10.50
2019-04-25T00:31:00.238Z,10.50
2019-04-25T00:33:31.539Z,10.40
2019-04-25T00:36:00.067Z,10.40
2019-04-25T00:38:28.759Z,10.40
2019-04-25T00:40:57.471Z,10.40
2019-04-25T00:43:26.215Z,10.40
2019-04-25T00:45:54.795Z,10.30
2019-04-25T00:48:23.539Z,10.30
2019-04-25T00:50:54.591Z,10.30
2019-04-25T00:53:22.501Z,10.30
2019-04-25T00:55:52.510Z,10.30
2019-04-25T00:58:43.287Z,10.30
2019-04-25T01:01:43.111Z,10.30
2019-04-25T01:04:14.008Z,10.30
2019-04-25T01:06:43.948Z,10.30
2019-04-25T01:09:16.377Z,10.30
2019-04-25T01:11:44.850Z,10.30
2019-04-25T01:14:13.665Z,10.30
2019-04-25T01:16:42.301Z,10.30
2019-04-25T01:19:11.213Z,10.30
2019-04-25T01:21:39.564Z,10.30
2019-04-25T01:24:09.172Z,10.30
2019-04-25T01:26:37.884Z,10.30
2019-04-25T01:29:06.763Z,10.30
2019-04-25T01:31:35.726Z,10.40
2019-04-25T01:34:06.844Z,10.40
2019-04-25T01:36:55.873Z,10.40
2019-04-25T01:39:47.485Z,10.40
2019-04-25T01:42:35.900Z,10.40
2019-04-25T01:45:05.470Z,10.40
2019-04-25T01:47:34.731Z,10.30
2019-04-25T01:50:05.062Z,10.30
2019-04-25T01:52:33.564Z,10.30
2019-04-25T01:55:03.518Z,10.30
2019-04-25T01:57:33.787Z,10.30
2019-04-25T02:00:03.935Z,10.20
2019-04-25T02:02:33.657Z,10.20
2019-04-25T02:05:04.761Z,10.30
2019-04-25T02:07:33.364Z,10.20
2019-04-25T02:10:04.241Z,10.20
2019-04-25T02:12:39.463Z,10.20
2019-04-25T02:15:08.725Z,10.20
2019-04-25T02:17:37.381Z,10.20
2019-04-25T02:20:06.618Z,10.10
2019-04-25T02:22:36.011Z,10.20
2019-04-25T02:25:04.954Z,10.20
2019-04-25T02:27:34.199Z,10.10
2019-04-25T02:30:06.880Z,10.10
2019-04-25T02:32:37.237Z,10.10
2019-04-25T02:35:09.556Z,10.10
2019-04-25T02:37:38.130Z,10.10
2019-04-25T02:40:08.470Z,10.10
2019-04-25T02:42:37.536Z,10.10
2019-04-25T02:45:24.414Z,10.10
2019-04-25T02:48:29.971Z,10.10
2019-04-25T02:51:07.718Z,10.10
2019-04-25T02:53:39.671Z,10.10
2019-04-25T02:56:27.457Z,10.10
2019-04-25T02:58:39.082Z,10.10
2019-04-25T03:01:18.180Z,10.10
2019-04-25T03:03:40.770Z,10.10
2019-04-25T03:06:09.759Z,10.10
2019-04-25T03:08:38.359Z,10.10
2019-04-25T03:11:08.139Z,10.10
2019-04-25T03:13:38.575Z,10.10
2019-04-25T03:16:09.714Z,10.10
2019-04-25T03:18:46.862Z,10.10
2019-04-25T03:21:28.380Z,10.10
2019-04-25T03:23:56.659Z,10.10
2019-04-25T03:26:25.346Z,10.20
2019-04-25T03:28:54.067Z,10.10
2019-04-25T03:31:27.004Z,10.20
2019-04-25T03:33:55.906Z,10.20
2019-04-25T03:36:24.388Z,10.20
2019-04-25T03:38:54.159Z,10.20
2019-04-25T03:41:24.429Z,10.20
2019-04-25T03:43:54.174Z,10.20
2019-04-25T03:46:23.402Z,10.20
2019-04-25T03:48:53.859Z,10.10
2019-04-25T03:51:23.992Z,10.20
2019-04-25T03:53:53.588Z,10.20
2019-04-25T03:56:22.487Z,10.20
2019-04-25T03:58:50.942Z,10.20
2019-04-25T04:01:19.663Z,10.20
2019-04-25T04:03:48.333Z,10.20
2019-04-25T04:06:17.225Z,10.20
2019-04-25T04:08:45.639Z,10.20
2019-04-25T04:11:15.494Z,10.20
2019-04-25T04:13:47.202Z,10.20
2019-04-25T04:16:18.389Z,10.20
2019-04-25T04:18:49.701Z,10.20
2019-04-25T04:21:25.064Z,10.20
2019-04-25T04:24:09.594Z,10.20
2019-04-25T04:26:38.035Z,10.20
2019-04-25T04:29:06.761Z,10.20
2019-04-25T04:31:35.358Z,10.20
2019-04-25T04:34:04.092Z,10.20
2019-04-25T04:36:33.860Z,10.20
2019-04-25T04:39:04.423Z,10.10
2019-04-25T04:41:33.918Z,10.10
2019-04-25T04:44:04.005Z,10.10
2019-04-25T04:46:34.030Z,10.10
2019-04-25T04:49:03.895Z,10.10
2019-04-25T04:51:33.580Z,10.00
2019-04-25T04:54:03.427Z,10.00
2019-04-25T04:56:34.068Z,10.00
2019-04-25T04:59:03.700Z,10.00
2019-04-25T05:01:35.844Z,10.00
2019-04-25T05:04:25.598Z,10.00
2019-04-25T05:07:16.324Z,9.90
2019-04-25T05:09:44.899Z,9.90
2019-04-25T05:12:15.239Z,9.90
2019-04-25T05:14:43.883Z,9.80
2019-04-25T05:17:14.302Z,9.80
2019-04-25T05:19:43.406Z,9.80
2019-04-25T05:22:14.451Z,9.80
2019-04-25T05:24:43.843Z,9.80
2019-04-25T05:27:32.279Z,9.70
2019-04-25T05:29:50.564Z,9.80
2019-04-25T05:32:20.146Z,9.80
2019-04-25T05:34:49.413Z,9.80
2019-04-25T05:37:18.234Z,9.70
2019-04-25T05:39:48.886Z,9.70
2019-04-25T05:42:27.083Z,9.70
2019-04-25T05:44:58.779Z,9.70
2019-04-25T05:47:27.227Z,9.70
2019-04-25T05:49:55.833Z,9.70
2019-04-25T05:52:25.167Z,9.70
2019-04-25T05:54:55.027Z,9.70
2019-04-25T05:57:24.996Z,9.70
2019-04-25T05:59:54.632Z,9.70
2019-04-25T06:02:25.312Z,9.70
2019-04-25T06:04:54.030Z,9.70
2019-04-25T06:07:25.488Z,9.70
2019-04-25T06:10:19.687Z,9.80
2019-04-25T06:13:13.923Z,9.80
2019-04-25T06:15:45.323Z,9.80
2019-04-25T06:18:21.228Z,9.90
2019-04-25T06:20:49.885Z,9.90
2019-04-25T06:23:26.858Z,10.00
2019-04-25T06:25:55.594Z,10.00
2019-04-25T06:28:26.221Z,10.00
2019-04-25T06:30:54.868Z,10.10
2019-04-25T06:33:27.102Z,10.10
2019-04-25T06:35:56.933Z,10.20
2019-04-25T06:38:27.154Z,10.30
2019-04-25T06:40:56.991Z,10.40
2019-04-25T06:43:25.795Z,10.50
2019-04-25T06:46:24.488Z,10.80
2019-04-25T06:48:57.924Z,10.90
2019-04-25T06:51:46.138Z,11.00
2019-04-25T06:54:14.868Z,11.00
2019-04-25T06:56:43.528Z,11.00
2019-04-25T06:59:13.636Z,11.00
2019-04-25T07:01:43.874Z,11.00
2019-04-25T07:04:14.070Z,11.10
2019-04-25T07:06:44.421Z,11.40
2019-04-25T07:09:14.622Z,11.80
2019-04-25T07:11:44.038Z,12.10
2019-04-25T07:14:14.243Z,12.40
2019-04-25T07:16:43.324Z,12.70
2019-04-25T07:19:12.231Z,13.00
2019-04-25T07:21:41.051Z,13.10
2019-04-25T07:24:10.560Z,13.10
2019-04-25T07:27:03.775Z,13.00
2019-04-25T07:29:43.228Z,13.30
2019-04-25T07:32:18.327Z,13.50
2019-04-25T07:34:47.089Z,13.30
2019-04-25T07:37:16.586Z,13.60
2019-04-25T07:39:45.415Z,13.50
2019-04-25T07:42:14.169Z,13.40
2019-04-25T07:44:52.215Z,13.30
2019-04-25T07:47:13.672Z,13.50
2019-04-25T07:49:43.509Z,13.70
2019-04-25T07:52:13.555Z,13.70
2019-04-25T07:54:43.917Z,13.80
2019-04-25T07:57:13.581Z,14.00
2019-04-25T07:59:43.621Z,14.20
2019-04-25T08:02:13.366Z,14.30
2019-04-25T08:04:42.159Z,14.40
2019-04-25T08:07:10.885Z,14.50
2019-04-25T08:09:39.538Z,14.60
2019-04-25T08:12:08.141Z,14.70
2019-04-25T08:14:51.195Z,14.80
2019-04-25T08:17:39.966Z,14.90
2019-04-25T08:20:09.125Z,14.80
2019-04-25T08:22:52.978Z,14.70
2019-04-25T08:25:13.812Z,14.60
2019-04-25T08:27:44.135Z,14.70
2019-04-25T08:30:14.039Z,14.80
2019-04-25T08:32:43.930Z,15.00
2019-04-25T08:35:13.917Z,15.10
2019-04-25T08:37:44.118Z,15.00
2019-04-25T08:40:13.704Z,15.00
2019-04-25T08:42:44.066Z,15.00
2019-04-25T08:45:13.495Z,15.20
2019-04-25T08:47:43.793Z,15.30
2019-04-25T08:50:28.807Z,15.10
2019-04-25T08:52:49.437Z,15.00
2019-04-25T08:55:37.015Z,15.10
2019-04-25T08:58:19.263Z,15.00
2019-04-25T09:01:05.914Z,14.80
2019-04-25T09:03:44.220Z,14.60
2019-04-25T09:06:13.443Z,14.30
2019-04-25T09:08:44.035Z,13.80
2019-04-25T09:11:13.333Z,13.50
2019-04-25T09:13:43.836Z,13.30
2019-04-25T09:16:13.509Z,13.10
2019-04-25T09:18:44.319Z,13.10
2019-04-25T09:21:13.801Z,13.10
2019-04-25T09:23:43.758Z,13.10
2019-04-25T09:26:14.304Z,13.10
2019-04-25T09:28:45.332Z,13.20
2019-04-25T09:31:13.928Z,13.20
2019-04-25T09:33:45.351Z,13.30
2019-04-25T09:36:14.234Z,13.50
2019-04-25T09:38:47.971Z,13.80
2019-04-25T09:41:15.333Z,14.10
2019-04-25T09:43:45.714Z,14.40
2019-04-25T09:46:24.267Z,14.80
2019-04-25T09:49:21.247Z,15.00
2019-04-25T09:52:13.288Z,15.10
2019-04-25T09:54:50.599Z,15.00
2019-04-25T09:57:45.852Z,14.80
2019-04-25T10:00:24.216Z,14.50
2019-04-25T10:02:55.299Z,14.70
2019-04-25T10:05:24.582Z,15.40
2019-04-25T10:07:53.516Z,16.20
2019-04-25T10:10:22.023Z,17.00
2019-04-25T10:12:50.860Z,17.40
2019-04-25T10:15:44.747Z,17.70
2019-04-25T10:18:14.424Z,17.50
2019-04-25T10:20:44.874Z,17.00
2019-04-25T10:23:15.660Z,16.50
2019-04-25T10:25:45.107Z,16.00
2019-04-25T10:28:15.281Z,15.90
2019-04-25T10:30:43.846Z,17.00
2019-04-25T10:33:14.361Z,17.80
2019-04-25T10:35:50.824Z,18.40
2019-04-25T10:38:13.963Z,19.00
2019-04-25T10:40:45.190Z,18.60
2019-04-25T10:43:15.772Z,18.00
2019-04-25T10:45:46.006Z,17.30
2019-04-25T10:48:15.260Z,16.60
2019-04-25T10:50:46.835Z,16.00
2019-04-25T10:53:25.228Z,15.50
2019-04-25T10:55:53.762Z,15.10
2019-04-25T10:58:22.170Z,14.80
2019-04-25T11:00:52.975Z,14.60
2019-04-25T11:03:47.128Z,14.40
2019-04-25T11:06:20.117Z,14.00
2019-04-25T11:08:49.761Z,13.90
2019-04-25T11:11:18.415Z,14.70
2019-04-25T11:13:47.106Z,15.60
2019-04-25T11:16:16.176Z,16.30
2019-04-25T11:18:45.441Z,16.90
2019-04-25T11:21:15.249Z,17.30
2019-04-25T11:23:45.007Z,17.70
2019-04-25T11:26:14.289Z,18.00
2019-04-25T11:28:45.313Z,18.20
2019-04-25T11:31:20.774Z,18.50
2019-04-25T11:33:49.977Z,18.70
2019-04-25T11:36:19.202Z,18.90
2019-04-25T11:39:09.502Z,19.00
2019-04-25T11:41:40.130Z,19.20
2019-04-25T11:44:08.809Z,18.80
2019-04-25T11:46:39.332Z,18.40
2019-04-25T11:49:08.043Z,18.30
2019-04-25T11:51:36.711Z,18.60
2019-04-25T11:54:05.548Z,19.00
2019-04-25T11:56:34.368Z,18.80
2019-04-25T11:59:04.550Z,18.60
2019-04-25T12:01:33.659Z,18.40
2019-04-25T12:04:01.968Z,18.30
2019-04-25T12:06:30.663Z,18.10
2019-04-25T12:08:59.387Z,17.70
2019-04-25T12:11:29.273Z,17.50
2019-04-25T12:13:57.740Z,17.20
2019-04-25T12:16:26.563Z,17.40
2019-04-25T12:18:56.454Z,17.50
2019-04-25T12:21:25.241Z,17.70
2019-04-25T12:23:53.540Z,17.70
2019-04-25T12:26:24.246Z,17.60
2019-04-25T12:28:53.921Z,17.70
2019-04-25T12:31:24.524Z,17.70
2019-04-25T12:33:54.800Z,17.60
2019-04-25T12:36:24.038Z,17.30
2019-04-25T12:38:54.571Z,17.00
2019-04-25T12:41:23.332Z,17.00
2019-04-25T12:44:04.210Z,17.10
2019-04-25T12:46:38.803Z,17.20
2019-04-25T12:49:07.445Z,17.30
2019-04-25T12:51:36.396Z,17.40
2019-04-25T12:54:04.764Z,17.40
2019-04-25T12:56:34.135Z,17.40
2019-04-25T12:59:02.771Z,17.30
2019-04-25T13:01:33.263Z,17.00
2019-04-25T13:04:02.009Z,16.90
2019-04-25T13:06:30.664Z,17.00
2019-04-25T13:08:59.507Z,17.20
2019-04-25T13:11:28.266Z,17.20
2019-04-25T13:13:56.932Z,17.20
2019-04-25T13:16:25.450Z,17.10
2019-04-25T13:18:53.826Z,17.00
2019-04-25T13:21:23.457Z,16.90
2019-04-25T13:23:58.070Z,16.90
2019-04-25T13:26:31.631Z,16.80
2019-04-25T13:29:14.697Z,16.70
2019-04-25T13:31:58.575Z,16.50
2019-04-25T13:34:36.482Z,16.40
2019-04-25T13:37:06.199Z,16.40
2019-04-25T13:39:35.233Z,16.20
2019-04-25T13:42:05.273Z,16.00
2019-04-25T13:44:34.286Z,15.80
2019-04-25T13:47:04.204Z,15.70
2019-04-25T13:49:32.700Z,15.80
2019-04-25T13:52:04.042Z,15.90
2019-04-25T13:54:33.772Z,16.10
2019-04-25T13:57:03.341Z,16.30
2019-04-25T13:59:32.641Z,16.50
2019-04-25T14:02:04.082Z,16.50
2019-04-25T14:04:35.452Z,16.50
2019-04-25T14:07:04.330Z,16.50
2019-04-25T14:09:34.727Z,16.50
2019-04-25T14:12:04.456Z,16.50
2019-04-25T14:14:35.845Z,16.50
2019-04-25T14:17:16.158Z,16.50
2019-04-25T14:20:14.200Z,16.50
2019-04-25T14:22:45.798Z,16.50
2019-04-25T14:25:15.099Z,16.50
2019-04-25T14:27:44.018Z,16.50
2019-04-25T14:30:16.761Z,16.30
2019-04-25T14:32:46.779Z,16.30
2019-04-25T14:35:16.176Z,16.20
2019-04-25T14:37:46.235Z,16.00
2019-04-25T14:40:15.235Z,15.90
2019-04-25T14:42:44.720Z,15.90
2019-04-25T14:45:14.960Z,15.70
2019-04-25T14:47:44.721Z,15.60
2019-04-25T14:50:14.469Z,15.50
2019-04-25T14:52:43.920Z,15.50
2019-04-25T14:55:46.248Z,15.60
2019-04-25T14:58:17.766Z,15.60
2019-04-25T15:00:48.765Z,15.70
2019-04-25T15:03:17.829Z,15.70
2019-04-25T15:05:46.411Z,15.70
2019-04-25T15:08:15.951Z,15.70
2019-04-25T15:10:44.613Z,15.70
2019-04-25T15:13:13.744Z,15.60
2019-04-25T15:15:43.348Z,15.60
2019-04-25T15:18:24.758Z,15.50
2019-04-25T15:21:00.415Z,15.50
2019-04-25T15:23:36.729Z,15.50
2019-04-25T15:26:11.824Z,15.50
2019-04-25T15:28:49.640Z,15.50
2019-04-25T15:31:25.454Z,15.60
2019-04-25T15:34:04.658Z,15.70
2019-04-25T15:37:00.026Z,15.60
2019-04-25T15:40:04.658Z,15.60
2019-04-25T15:42:49.618Z,15.50
2019-04-25T15:45:34.400Z,15.60
2019-04-25T15:48:15.970Z,15.60
2019-04-25T15:50:51.415Z,15.50
2019-04-25T15:53:24.869Z,15.40
2019-04-25T15:56:03.046Z,15.30
2019-04-25T15:58:41.684Z,15.10
2019-04-25T16:01:21.823Z,15.00
2019-04-25T16:03:57.617Z,15.00
2019-04-25T16:06:39.499Z,15.00
2019-04-25T16:09:16.354Z,15.00
2019-04-25T16:11:53.719Z,15.10
2019-04-25T16:14:38.947Z,15.20
2019-04-25T16:17:16.690Z,15.20
2019-04-25T16:19:56.018Z,15.10
2019-04-25T16:22:32.565Z,15.10
2019-04-25T16:25:05.790Z,14.90
2019-04-25T16:27:41.081Z,14.80
2019-04-25T16:30:18.076Z,14.80
2019-04-25T16:32:54.915Z,14.70
2019-04-25T16:35:37.841Z,14.70
2019-04-25T16:38:16.892Z,14.70
2019-04-25T16:40:53.148Z,14.70
2019-04-25T16:43:34.003Z,14.70
2019-04-25T16:46:11.589Z,14.60
2019-04-25T16:48:49.595Z,14.60
2019-04-25T16:51:29.323Z,14.60
2019-04-25T16:54:05.190Z,14.60
2019-04-25T16:56:41.700Z,14.60
2019-04-25T16:59:17.046Z,14.60
2019-04-25T17:01:54.187Z,14.60
2019-04-25T17:04:31.102Z,14.50
2019-04-25T17:07:05.849Z,14.50
2019-04-25T17:09:42.957Z,14.60
2019-04-25T17:12:27.525Z,14.60
2019-04-25T17:15:21.999Z,14.60
2019-04-25T17:18:13.591Z,14.70
2019-04-25T17:21:06.104Z,14.60
2019-04-25T17:23:44.827Z,14.50
2019-04-25T17:26:20.346Z,14.40
2019-04-25T17:28:57.911Z,14.30
2019-04-25T17:31:49.103Z,14.20
2019-04-25T17:34:48.255Z,14.10
2019-04-25T17:37:44.195Z,14.00
2019-04-25T17:40:27.889Z,14.00
2019-04-25T17:43:10.999Z,13.90
2019-04-25T17:45:42.498Z,13.80
2019-04-25T17:48:26.622Z,13.80
2019-04-25T17:51:01.569Z,13.80
2019-04-25T17:53:41.257Z,13.70
2019-04-25T17:56:17.961Z,13.60
2019-04-25T17:58:53.498Z,13.60
2019-04-25T18:01:29.686Z,13.60
2019-04-25T18:04:16.784Z,13.50
2019-04-25T18:06:54.512Z,13.50
2019-04-25T18:09:30.368Z,13.40
2019-04-25T18:12:05.673Z,13.40
2019-04-25T18:14:46.463Z,13.40
2019-04-25T18:17:25.000Z,13.30
2019-04-25T18:20:16.314Z,13.20
2019-04-25T18:23:11.982Z,13.10
2019-04-25T18:26:17.528Z,13.00
2019-04-25T18:29:01.793Z,12.80
2019-04-25T18:31:43.823Z,12.60
2019-04-25T18:34:30.163Z,12.40
2019-04-25T18:37:17.594Z,12.30
2019-04-25T18:39:53.911Z,12.20
2019-04-25T18:42:48.736Z,12.10
2019-04-25T18:45:31.949Z,12.00
2019-04-25T18:48:06.057Z,12.00
2019-04-25T18:50:44.619Z,11.90
2019-04-25T18:53:54.905Z,11.90
2019-04-25T18:56:33.589Z,11.80
2019-04-25T18:59:32.754Z,11.80
2019-04-25T19:02:41.878Z,11.70
2019-04-25T19:05:40.973Z,11.60
2019-04-25T19:08:14.623Z,11.50
2019-04-25T19:10:54.068Z,11.40
2019-04-25T19:13:27.743Z,11.30
2019-04-25T19:16:04.322Z,11.30
2019-04-25T19:18:45.434Z,11.20
2019-04-25T19:21:19.332Z,11.10
2019-04-25T19:23:58.621Z,11.00
2019-04-25T19:26:42.268Z,10.90
2019-04-25T19:29:25.878Z,10.80
2019-04-25T19:32:02.951Z,10.70
2019-04-25T19:34:42.564Z,10.70
2019-04-25T19:37:19.932Z,10.60
2019-04-25T19:40:11.656Z,10.60
2019-04-25T19:42:49.082Z,10.50
2019-04-25T19:45:23.726Z,10.40
2019-04-25T19:48:01.567Z,10.40
2019-04-25T19:50:38.570Z,10.30
2019-04-25T19:53:13.404Z,10.30
2019-04-25T19:55:49.950Z,10.20
2019-04-25T19:58:24.471Z,10.20
2019-04-25T20:01:05.284Z,10.20
2019-04-25T20:04:00.963Z,10.10
2019-04-25T20:06:51.607Z,10.00
2019-04-25T20:09:59.527Z,10.00
2019-04-25T20:12:53.048Z,10.00
2019-04-25T20:15:38.456Z,10.00
2019-04-25T20:18:25.320Z,10.00
2019-04-25T20:21:02.608Z,9.90
2019-04-25T20:23:36.745Z,9.90
2019-04-25T20:26:12.363Z,9.80
2019-04-25T20:28:46.183Z,9.80
2019-04-25T20:31:21.642Z,9.80
2019-04-25T20:34:05.878Z,9.80
2019-04-25T20:36:33.448Z,9.70
2019-04-25T20:39:10.091Z,9.70
2019-04-25T20:41:43.805Z,9.70
2019-04-25T20:44:23.007Z,9.70
2019-04-25T20:46:57.698Z,9.60
2019-04-25T20:49:31.215Z,9.60
2019-04-25T20:52:15.295Z,9.60
2019-04-25T20:54:52.833Z,9.60
2019-04-25T20:57:28.302Z,9.60
2019-04-25T21:00:03.121Z,9.60
2019-04-25T21:02:39.056Z,9.60
2019-04-25T21:05:13.422Z,9.60
2019-04-25T21:07:48.937Z,9.50
2019-04-25T21:10:22.687Z,9.50
2019-04-25T21:13:00.593Z,9.50
2019-04-25T21:15:56.291Z,9.50
2019-04-25T21:18:42.737Z,9.50
2019-04-25T21:21:18.392Z,9.40
2019-04-25T21:23:53.711Z,9.40
2019-04-25T21:26:40.107Z,9.40
2019-04-25T21:29:23.424Z,9.40
2019-04-25T21:32:05.589Z,9.40
2019-04-25T21:34:41.476Z,9.40
2019-04-25T21:37:18.097Z,9.40
2019-04-25T21:40:12.100Z,9.40
2019-04-25T21:43:08.148Z,9.40
2019-04-25T21:45:42.974Z,9.40
2019-04-25T21:48:22.938Z,9.40
2019-04-25T21:51:04.205Z,9.40
2019-04-25T21:53:47.636Z,9.40
2019-04-25T21:56:29.590Z,9.30
2019-04-25T21:59:05.422Z,9.30
2019-04-25T22:01:48.452Z,9.40
2019-04-25T22:04:39.139Z,9.40
2019-04-25T22:07:13.107Z,9.30
2019-04-25T22:09:52.510Z,9.40
2019-04-25T22:12:32.927Z,9.40
2019-04-25T22:15:15.474Z,9.30
2019-04-25T22:17:45.108Z,9.30
2019-04-25T22:20:13.924Z,9.30
2019-04-25T22:22:42.691Z,9.30
2019-04-25T22:25:11.459Z,9.30
2019-04-25T22:27:40.190Z,9.30
2019-04-25T22:30:10.844Z,9.20
2019-04-25T22:33:02.125Z,9.30
2019-04-25T22:35:39.806Z,9.20
2019-04-25T22:38:09.183Z,9.30
2019-04-25T22:40:37.977Z,9.20
2019-04-25T22:43:08.041Z,9.30
2019-04-25T22:45:37.044Z,9.20
2019-04-25T22:48:06.674Z,9.20
2019-04-25T22:50:35.812Z,9.20
2019-04-25T22:53:04.520Z,9.20
2019-04-25T22:55:33.575Z,9.20
2019-04-25T22:58:02.762Z,9.20
2019-04-25T23:00:35.987Z,9.20
2019-04-25T23:03:20.455Z,9.20
2019-04-25T23:05:53.498Z,9.20
2019-04-25T23:08:22.614Z,9.10
2019-04-25T23:10:51.099Z,9.10
2019-04-25T23:13:19.513Z,9.10
2019-04-25T23:15:48.259Z,9.10
2019-04-25T23:18:16.936Z,9.10
2019-04-25T23:20:45.447Z,9.10
2019-04-25T23:23:14.111Z,9.10
2019-04-25T23:26:20.358Z,9.10
2019-04-25T23:28:50.365Z,9.10
2019-04-25T23:31:23.502Z,9.10
2019-04-25T23:33:53.903Z,9.10
2019-04-25T23:36:22.583Z,9.10
2019-04-25T23:38:51.075Z,9.20
2019-04-25T23:41:19.655Z,9.20
2019-04-25T23:43:50.298Z,9.20
2019-04-25T23:46:18.716Z,9.20
2019-04-25T23:48:47.454Z,9.20
2019-04-25T23:51:16.143Z,9.20
2019-04-25T23:53:45.130Z,9.20
2019-04-25T23:56:13.506Z,9.20
2019-04-25T23:58:41.889Z,9.20
